Hauptseite
METAR-TAF:

METAR-TAF

Flughäfen :

Flughafen Doha

Doha, Katar

Breite: 25-15-40N, Länge: 051-33-54E, Höhe: 11 m

Beobachtung

Neuester Wetterbericht von vor 11 Minuten, um 01:30 UTC
Wind 11 kt aus Nordwest, variierte zwischen West/Nordwest und Nord
Temperatur 34°C
Luftfeuchtigkeit 30%
Luftdruck 1001 hPa
Sichtweite 10 km oder mehr
keine Wolken unter 1500 m und keine Kumulonimbus oder Gewitterwolken

METAR: OTBD 290130Z 32011KT 290V360 CAVOK 34/14 Q1001 NOSIG

Zeit: 04:41 (01:41 UTC)

Prognose

Neuester Wetterbericht von vor 2 Stunden und 41 Minuten, um 23:00 UTC
Gültige Prognose vom 29 um 00 UTC bis 30 um 06 UTC
Wind 13 kt aus Nordwest
Sichtweite: 8000 m
Zeitweise
vom 29 um 05 UTC bis 29 um 12 UTC
Wind 18 kt aus Nord, Böen bis zu 28 kt

TAF: OTBD 282300Z 2900/3006 32013KT 8000 NSC TEMPO 2905/2912 01018G28KT

Wetterbeobachtungen und Prognosen von mehr als 4000 Flughäfen (METAR und TAF Bericht).

Die verfügbaren Stationen werden durch gelbe und rote Markierungen auf der Karte dargestellt.

Führen Sie die Maus auf sie, um den Namen der Station zu sehen.

Darauf klicken, um die Beobachtung von Wetterbeobachtungen und Prognosen zu sehen.

Um die Karte zu ändern : klicken Sie auf den grünen Tasten mit einem schwarzen Kreuz Zum Vergrößern, auf den grünen Button mit einem Gedankenstrich zu verkleinern, oder auf die grünen Pfeile für benachbarte Karten.


METAR-TAF: